createdAt,value
2018-11-26T00:01:58.353Z,5.80
2018-11-26T00:04:26.679Z,5.80
2018-11-26T00:06:54.937Z,5.80
2018-11-26T00:09:23.200Z,5.90
2018-11-26T00:11:51.474Z,5.90
2018-11-26T00:16:47.857Z,5.80
2018-11-26T00:19:16.085Z,5.80
2018-11-26T00:21:44.348Z,5.80
2018-11-26T00:24:12.635Z,5.80
2018-11-26T00:26:40.829Z,5.80
2018-11-26T00:29:09.081Z,5.80
2018-11-26T00:31:37.314Z,5.80
2018-11-26T00:34:05.737Z,5.90
2018-11-26T00:36:34.033Z,5.80
2018-11-26T00:39:02.339Z,5.80
2018-11-26T00:41:30.658Z,5.90
2018-11-26T00:43:58.940Z,5.80
2018-11-26T00:46:27.187Z,5.90
2018-11-26T00:48:55.468Z,5.90
2018-11-26T00:51:23.738Z,5.90
2018-11-26T00:53:51.957Z,5.90
2018-11-26T00:56:20.264Z,5.90
2018-11-26T00:58:48.513Z,5.90
2018-11-26T01:01:16.798Z,5.90
2018-11-26T01:03:45.062Z,5.90
2018-11-26T01:06:13.345Z,5.80
2018-11-26T01:11:09.654Z,5.90
2018-11-26T01:18:34.121Z,5.90
2018-11-26T01:21:02.402Z,5.90
2018-11-26T01:23:30.686Z,5.90
2018-11-26T01:25:59.007Z,6.00
2018-11-26T01:28:27.264Z,5.90
2018-11-26T01:30:55.583Z,6.00
2018-11-26T01:33:23.873Z,6.10
2018-11-26T01:35:52.174Z,6.00
2018-11-26T01:38:20.449Z,6.00
2018-11-26T01:40:51.382Z,5.90
2018-11-26T01:43:20.350Z,5.90
2018-11-26T01:45:48.670Z,5.90
2018-11-26T01:48:16.951Z,5.90
2018-11-26T01:50:45.183Z,5.90
2018-11-26T01:53:13.455Z,5.90
2018-11-26T01:55:41.760Z,5.90
2018-11-26T01:58:10.053Z,5.90
2018-11-26T02:00:38.298Z,5.90
2018-11-26T02:03:06.660Z,5.90
2018-11-26T02:05:41.622Z,6.30
2018-11-26T02:08:09.928Z,5.90
2018-11-26T02:10:38.162Z,5.80
2018-11-26T02:13:06.441Z,6.40
2018-11-26T02:15:37.510Z,5.90
2018-11-26T02:23:01.954Z,5.80
2018-11-26T02:25:30.305Z,5.80
2018-11-26T02:27:58.572Z,5.90
2018-11-26T02:30:26.820Z,5.90
2018-11-26T02:32:55.141Z,5.90
2018-11-26T02:35:23.378Z,5.90
2018-11-26T02:37:52.368Z,5.90
2018-11-26T02:40:27.044Z,5.90
2018-11-26T02:42:55.321Z,5.90
2018-11-26T02:45:23.588Z,5.90
2018-11-26T02:47:51.886Z,5.80
2018-11-26T02:50:20.193Z,5.80
2018-11-26T02:52:48.519Z,5.90
2018-11-26T02:55:16.886Z,5.90
2018-11-26T02:57:45.171Z,6.00
2018-11-26T03:00:13.763Z,6.00
2018-11-26T03:02:42.088Z,5.80
2018-11-26T03:05:13.036Z,5.90
2018-11-26T03:07:41.290Z,5.80
2018-11-26T03:10:10.355Z,5.80
2018-11-26T03:12:38.925Z,5.90
2018-11-26T03:15:09.891Z,5.80
2018-11-26T03:17:38.624Z,5.90
2018-11-26T03:20:08.815Z,5.90
2018-11-26T03:22:37.113Z,5.80
2018-11-26T03:25:07.739Z,5.80
2018-11-26T03:27:35.972Z,5.80
2018-11-26T03:30:07.301Z,5.90
2018-11-26T03:32:35.617Z,5.80
2018-11-26T03:35:03.960Z,5.80
2018-11-26T03:37:32.345Z,5.70
2018-11-26T03:40:00.612Z,5.80
2018-11-26T03:42:28.929Z,5.80
2018-11-26T03:44:57.206Z,5.90
2018-11-26T03:47:25.468Z,5.90
2018-11-26T03:49:53.788Z,5.90
2018-11-26T03:52:22.064Z,5.80
2018-11-26T03:54:50.338Z,5.80
2018-11-26T03:57:18.622Z,5.80
2018-11-26T03:59:46.892Z,5.80
2018-11-26T04:02:15.157Z,5.80
2018-11-26T04:04:43.441Z,5.70
2018-11-26T04:07:11.721Z,5.70
2018-11-26T04:09:39.996Z,5.80
2018-11-26T04:12:08.281Z,5.70
2018-11-26T04:14:36.693Z,5.70
2018-11-26T04:17:06.053Z,5.70
2018-11-26T04:19:34.324Z,5.60
2018-11-26T04:22:02.585Z,5.60
2018-11-26T04:24:30.869Z,5.60
2018-11-26T04:26:59.171Z,6.10
2018-11-26T04:29:27.411Z,5.70
2018-11-26T04:31:55.688Z,5.70
2018-11-26T04:34:23.908Z,5.60
2018-11-26T04:36:52.089Z,5.70
2018-11-26T04:39:20.351Z,5.70
2018-11-26T04:41:48.646Z,5.70
2018-11-26T04:44:16.880Z,5.60
2018-11-26T04:46:45.120Z,5.60
2018-11-26T04:49:13.385Z,5.60
2018-11-26T04:51:41.596Z,5.50
2018-11-26T04:54:09.885Z,5.50
2018-11-26T04:56:38.127Z,5.50
2018-11-26T04:59:06.368Z,5.50
2018-11-26T05:01:34.630Z,5.50
2018-11-26T05:04:02.896Z,5.60
2018-11-26T05:06:31.186Z,5.60
2018-11-26T05:08:59.388Z,5.70
2018-11-26T05:11:27.628Z,5.60
2018-11-26T05:13:55.883Z,5.50
2018-11-26T05:16:24.344Z,5.50
2018-11-26T05:18:52.787Z,5.20
2018-11-26T05:21:21.222Z,5.50
2018-11-26T05:23:49.692Z,5.70
2018-11-26T05:31:14.133Z,5.70
2018-11-26T05:33:42.332Z,5.80
2018-11-26T05:36:10.603Z,5.80
2018-11-26T05:38:38.918Z,5.80
2018-11-26T05:41:07.265Z,5.70
2018-11-26T05:43:35.533Z,5.70
2018-11-26T05:46:04.030Z,5.70
2018-11-26T05:48:32.424Z,6.20
2018-11-26T05:51:00.890Z,6.30
2018-11-26T05:53:29.410Z,6.30
2018-11-26T05:55:57.697Z,6.30
2018-11-26T05:58:25.955Z,6.20
2018-11-26T06:00:54.252Z,6.20
2018-11-26T06:03:22.504Z,5.90
2018-11-26T06:05:50.779Z,5.80
2018-11-26T06:08:19.046Z,5.80
2018-11-26T06:10:47.300Z,5.80
2018-11-26T06:15:43.745Z,5.70
2018-11-26T06:18:11.995Z,5.70
2018-11-26T06:20:40.234Z,5.60
2018-11-26T06:23:15.358Z,5.80
2018-11-26T06:25:43.669Z,5.60
2018-11-26T06:28:11.905Z,5.70
2018-11-26T06:30:40.156Z,5.60
2018-11-26T06:33:08.415Z,6.00
2018-11-26T06:35:36.740Z,5.60
2018-11-26T06:38:05.292Z,5.70
2018-11-26T06:40:33.598Z,5.70
2018-11-26T06:43:01.865Z,5.80
2018-11-26T06:45:30.075Z,5.70
2018-11-26T06:47:58.315Z,5.60
2018-11-26T06:50:26.640Z,5.60
2018-11-26T06:52:54.796Z,5.60
2018-11-26T06:55:23.098Z,5.60
2018-11-26T06:57:51.395Z,5.50
2018-11-26T07:00:20.347Z,5.50
2018-11-26T07:07:45.107Z,5.60
2018-11-26T07:10:13.897Z,5.60
2018-11-26T07:12:42.166Z,5.50
2018-11-26T07:15:14.475Z,5.50
2018-11-26T07:17:42.841Z,5.50
2018-11-26T07:20:16.124Z,5.60
2018-11-26T07:22:44.402Z,5.50
2018-11-26T07:25:17.994Z,5.50
2018-11-26T07:27:47.732Z,4.20
2018-11-26T07:32:45.379Z,5.60
2018-11-26T07:35:14.169Z,6.00
2018-11-26T07:37:42.592Z,5.60
2018-11-26T07:42:41.629Z,5.80
2018-11-26T07:45:11.502Z,5.80
2018-11-26T07:47:39.879Z,6.10
2018-11-26T07:50:11.541Z,6.20
2018-11-26T07:52:39.808Z,6.30
2018-11-26T07:55:10.633Z,6.20
2018-11-26T08:00:10.595Z,6.20
2018-11-26T08:02:38.924Z,6.20
2018-11-26T08:05:08.536Z,6.20
2018-11-26T08:10:06.711Z,6.20
2018-11-26T08:12:35.068Z,6.10
2018-11-26T08:15:03.363Z,6.10
2018-11-26T08:17:31.635Z,6.10
2018-11-26T08:22:27.955Z,6.00
2018-11-26T08:24:56.196Z,6.00
2018-11-26T08:27:24.573Z,6.00
2018-11-26T08:29:52.824Z,5.90
2018-11-26T08:32:21.142Z,5.90
2018-11-26T08:34:49.417Z,6.00
2018-11-26T08:37:20.024Z,6.00
2018-11-26T08:39:53.773Z,5.90
2018-11-26T08:42:25.764Z,6.10
2018-11-26T08:45:00.679Z,6.10
2018-11-26T08:47:33.684Z,6.10
2018-11-26T08:50:02.243Z,6.10
2018-11-26T08:52:30.556Z,6.00
2018-11-26T08:54:58.934Z,6.00
2018-11-26T08:57:27.183Z,5.90
2018-11-26T08:59:55.437Z,5.90
2018-11-26T09:02:27.944Z,6.00
2018-11-26T09:05:00.337Z,5.90
2018-11-26T09:07:28.843Z,5.90
2018-11-26T09:09:57.112Z,5.80
2018-11-26T09:12:25.380Z,5.90
2018-11-26T09:14:53.729Z,5.90
2018-11-26T09:17:22.081Z,5.90
2018-11-26T09:19:50.344Z,5.90
2018-11-26T09:22:18.735Z,6.10
2018-11-26T09:24:48.364Z,6.10
2018-11-26T09:27:16.797Z,6.10
2018-11-26T09:29:45.077Z,6.10
2018-11-26T09:32:13.379Z,6.00
2018-11-26T09:37:09.680Z,6.10
2018-11-26T09:39:38.007Z,6.40
2018-11-26T09:44:34.381Z,6.10
2018-11-26T09:47:02.652Z,6.10
2018-11-26T09:49:30.943Z,6.10
2018-11-26T09:51:59.213Z,6.10
2018-11-26T09:54:27.507Z,6.10
2018-11-26T09:59:23.774Z,6.10
2018-11-26T10:01:52.158Z,6.20
2018-11-26T10:04:20.537Z,6.20
2018-11-26T10:06:49.687Z,6.20
2018-11-26T10:09:18.020Z,6.10
2018-11-26T10:11:46.331Z,6.00
2018-11-26T10:14:15.629Z,6.10
2018-11-26T10:16:43.915Z,6.20
2018-11-26T10:19:12.402Z,6.20
2018-11-26T10:21:40.672Z,6.20
2018-11-26T10:24:08.977Z,6.20
2018-11-26T10:26:37.244Z,6.10
2018-11-26T10:30:08.449Z,6.10
2018-11-26T10:32:36.699Z,6.00
2018-11-26T10:35:05.349Z,6.10
2018-11-26T10:37:33.594Z,6.10
2018-11-26T10:40:04.458Z,6.20
2018-11-26T10:42:32.746Z,6.20
2018-11-26T10:45:01.012Z,6.30
2018-11-26T10:47:29.302Z,6.20
2018-11-26T10:49:57.693Z,6.30
2018-11-26T10:52:25.923Z,6.20
2018-11-26T10:54:54.215Z,6.30
2018-11-26T10:57:22.484Z,6.30
2018-11-26T10:59:50.844Z,6.30
2018-11-26T11:02:24.709Z,6.20
2018-11-26T11:04:53.039Z,6.30
2018-11-26T11:07:21.325Z,6.30
2018-11-26T11:09:50.585Z,6.30
2018-11-26T11:12:18.906Z,6.40
2018-11-26T11:14:48.246Z,6.30
2018-11-26T11:17:16.496Z,6.40
2018-11-26T11:19:44.759Z,6.40
2018-11-26T11:22:13.123Z,6.30
2018-11-26T11:24:41.392Z,6.40
2018-11-26T11:27:16.316Z,6.40
2018-11-26T11:29:45.606Z,6.40
2018-11-26T11:32:13.876Z,6.40
2018-11-26T11:34:42.098Z,6.40
2018-11-26T11:37:10.399Z,6.50
2018-11-26T11:39:38.654Z,6.50
2018-11-26T11:42:06.925Z,6.50
2018-11-26T11:44:35.704Z,6.50
2018-11-26T11:47:03.540Z,6.50
2018-11-26T11:49:31.773Z,6.50
2018-11-26T11:52:00.060Z,6.50
2018-11-26T11:54:28.314Z,6.60
2018-11-26T11:56:56.569Z,6.80
2018-11-26T12:01:52.885Z,6.50
2018-11-26T12:06:49.212Z,6.50
2018-11-26T12:09:17.550Z,6.70
2018-11-26T12:11:45.812Z,6.60
2018-11-26T12:14:14.179Z,6.60
2018-11-26T12:16:42.411Z,6.70
2018-11-26T12:21:38.785Z,6.50
2018-11-26T12:24:07.305Z,6.50
2018-11-26T12:26:35.552Z,6.50
2018-11-26T12:29:03.793Z,6.50
2018-11-26T12:31:32.070Z,6.40
2018-11-26T12:34:00.364Z,6.40
2018-11-26T12:36:28.595Z,6.40
2018-11-26T12:38:57.910Z,6.30
2018-11-26T12:41:26.151Z,6.30
2018-11-26T12:43:54.595Z,6.40
2018-11-26T12:46:22.858Z,6.40
2018-11-26T12:48:51.130Z,6.40
2018-11-26T12:51:19.411Z,6.40
2018-11-26T12:53:47.689Z,7.00
2018-11-26T12:58:44.027Z,7.60
2018-11-26T13:01:13.375Z,7.50
2018-11-26T13:03:41.646Z,7.50
2018-11-26T13:06:09.880Z,7.20
2018-11-26T13:08:38.163Z,7.10
2018-11-26T13:11:06.553Z,6.90
2018-11-26T13:13:34.873Z,6.80
2018-11-26T13:16:03.221Z,6.80
2018-11-26T13:18:31.551Z,6.80
2018-11-26T13:23:27.855Z,6.70
2018-11-26T13:25:56.096Z,6.70
2018-11-26T13:28:24.333Z,6.60
2018-11-26T13:30:52.647Z,6.70
2018-11-26T13:33:20.963Z,6.80
2018-11-26T13:35:49.602Z,6.80
2018-11-26T13:38:17.928Z,6.70
2018-11-26T13:40:46.166Z,6.80
2018-11-26T13:43:15.768Z,6.70
2018-11-26T13:45:46.135Z,6.60
2018-11-26T13:48:15.598Z,6.50
2018-11-26T13:50:58.645Z,6.60
2018-11-26T13:53:26.924Z,6.50
2018-11-26T13:55:55.155Z,6.40
2018-11-26T13:58:23.447Z,6.40
2018-11-26T14:00:51.727Z,6.40
2018-11-26T14:05:48.007Z,6.40
2018-11-26T14:08:16.289Z,6.40
2018-11-26T14:10:44.521Z,6.30
2018-11-26T14:13:14.136Z,6.30
2018-11-26T14:15:42.397Z,6.30
2018-11-26T14:18:10.698Z,6.30
2018-11-26T14:20:38.971Z,6.30
2018-11-26T14:23:07.601Z,6.30
2018-11-26T14:25:35.954Z,6.30
2018-11-26T14:30:32.282Z,6.30
2018-11-26T14:33:00.549Z,6.30
2018-11-26T14:35:28.913Z,6.30
2018-11-26T14:37:58.558Z,6.40
2018-11-26T14:40:28.967Z,6.30
2018-11-26T14:42:57.276Z,6.30
2018-11-26T14:45:25.547Z,6.20
2018-11-26T14:47:53.725Z,6.30
2018-11-26T14:50:22.225Z,6.30
2018-11-26T14:52:50.783Z,6.20
2018-11-26T14:55:22.211Z,6.20
2018-11-26T14:57:50.396Z,6.20
2018-11-26T15:00:19.361Z,6.20
2018-11-26T15:02:47.647Z,6.20
2018-11-26T15:05:15.980Z,6.00
2018-11-26T15:07:44.600Z,6.30
2018-11-26T15:10:16.075Z,6.00
2018-11-26T15:12:44.889Z,6.10
2018-11-26T15:15:16.246Z,6.10
2018-11-26T15:17:45.275Z,6.10
2018-11-26T15:20:30.728Z,6.00
2018-11-26T15:22:59.882Z,5.80
2018-11-26T15:25:29.463Z,5.80
2018-11-26T15:28:00.130Z,5.80
2018-11-26T15:30:28.521Z,5.70
2018-11-26T15:32:56.874Z,5.70
2018-11-26T15:35:25.299Z,5.60
2018-11-26T15:37:53.617Z,5.70
2018-11-26T15:40:22.336Z,5.60
2018-11-26T15:42:50.749Z,5.50
2018-11-26T15:45:23.113Z,5.50
2018-11-26T15:47:52.290Z,5.50
2018-11-26T15:50:20.860Z,5.50
2018-11-26T15:52:49.045Z,5.40
2018-11-26T15:55:18.684Z,5.40
2018-11-26T15:57:47.080Z,5.10
2018-11-26T16:00:18.343Z,5.10
2018-11-26T16:02:46.639Z,5.00
2018-11-26T16:05:22.309Z,5.00
2018-11-26T16:07:50.985Z,5.00
2018-11-26T16:10:19.317Z,5.00
2018-11-26T16:12:49.095Z,5.00
2018-11-26T16:17:49.418Z,4.90
2018-11-26T16:20:19.303Z,4.80
2018-11-26T16:30:14.201Z,4.70
2018-11-26T16:32:43.810Z,4.70
2018-11-26T16:35:14.653Z,4.70
2018-11-26T16:37:42.965Z,4.60
2018-11-26T16:40:14.395Z,4.60
2018-11-26T16:42:42.662Z,4.60
2018-11-26T16:45:15.241Z,4.60
2018-11-26T16:47:44.306Z,4.60
2018-11-26T16:50:13.554Z,4.60
2018-11-26T16:52:41.815Z,4.60
2018-11-26T16:55:12.294Z,4.60
2018-11-26T16:57:40.698Z,4.60
2018-11-26T17:00:39.879Z,4.60
2018-11-26T17:03:08.233Z,4.40
2018-11-26T17:05:40.914Z,4.40
2018-11-26T17:08:11.115Z,4.40
2018-11-26T17:10:39.695Z,4.40
2018-11-26T17:13:08.312Z,4.40
2018-11-26T17:15:37.128Z,4.40
2018-11-26T17:18:06.692Z,4.40
2018-11-26T17:20:35.847Z,4.40
2018-11-26T17:25:32.268Z,4.30
2018-11-26T17:28:00.542Z,4.40
2018-11-26T17:30:28.891Z,4.40
2018-11-26T17:32:59.237Z,4.40
2018-11-26T17:35:27.901Z,4.30
2018-11-26T17:37:56.163Z,4.40
2018-11-26T17:40:24.881Z,4.40
2018-11-26T17:42:53.574Z,4.40
2018-11-26T17:45:22.475Z,4.30
2018-11-26T17:47:54.969Z,4.50
2018-11-26T17:52:52.903Z,4.40
2018-11-26T17:55:21.197Z,4.30
2018-11-26T17:57:49.504Z,4.30
2018-11-26T18:00:22.177Z,4.30
2018-11-26T18:02:50.520Z,4.30
2018-11-26T18:05:21.300Z,4.30
2018-11-26T18:07:55.557Z,4.20
2018-11-26T18:10:23.837Z,4.20
2018-11-26T18:12:52.108Z,4.20
2018-11-26T18:15:20.579Z,4.20
2018-11-26T18:17:49.056Z,4.20
2018-11-26T18:20:18.724Z,4.20
2018-11-26T18:22:48.454Z,4.20
2018-11-26T18:25:17.517Z,4.20
2018-11-26T18:27:52.769Z,4.20
2018-11-26T18:30:24.298Z,4.20
2018-11-26T18:32:52.815Z,4.20
2018-11-26T18:35:21.285Z,4.20
2018-11-26T18:37:49.596Z,4.20
2018-11-26T18:40:18.107Z,4.20
2018-11-26T18:42:46.433Z,4.20
2018-11-26T18:45:16.983Z,4.30
2018-11-26T18:50:17.072Z,4.30
2018-11-26T18:52:45.953Z,4.20
2018-11-26T18:55:14.365Z,4.40
2018-11-26T18:57:43.002Z,4.30
2018-11-26T19:00:19.758Z,4.30
2018-11-26T19:02:48.268Z,4.30
2018-11-26T19:05:17.584Z,4.30
2018-11-26T19:07:45.962Z,4.20
2018-11-26T19:10:19.445Z,4.20
2018-11-26T19:13:59.856Z,4.30
2018-11-26T19:16:30.811Z,4.10
2018-11-26T19:18:59.497Z,4.10
2018-11-26T19:23:56.216Z,4.10
2018-11-26T19:26:25.786Z,4.20
2018-11-26T19:28:53.218Z,4.20
2018-11-26T19:31:21.690Z,4.20
2018-11-26T19:33:50.314Z,4.20
2018-11-26T19:36:18.886Z,4.20
2018-11-26T19:38:47.342Z,6.10
2018-11-26T19:41:15.982Z,4.30
2018-11-26T19:43:44.426Z,4.30
2018-11-26T19:46:12.888Z,4.30
2018-11-26T19:48:41.375Z,4.30
2018-11-26T19:51:09.795Z,4.20
2018-11-26T19:53:38.172Z,4.20
2018-11-26T19:56:06.454Z,4.20
2018-11-26T19:58:34.743Z,4.20
2018-11-26T20:01:03.105Z,4.20
2018-11-26T20:03:33.547Z,4.30
2018-11-26T20:06:04.932Z,4.30
2018-11-26T20:08:33.313Z,4.20
2018-11-26T20:11:01.768Z,4.40
2018-11-26T20:15:58.057Z,4.30
2018-11-26T20:18:28.628Z,4.20
2018-11-26T20:20:54.767Z,4.20
2018-11-26T20:23:23.118Z,4.20
2018-11-26T20:28:19.449Z,4.20
2018-11-26T20:30:47.992Z,4.20
2018-11-26T20:33:16.584Z,4.20
2018-11-26T20:35:44.916Z,4.30
2018-11-26T20:38:14.647Z,4.30
2018-11-26T20:40:42.933Z,4.30
2018-11-26T20:43:12.262Z,4.30
2018-11-26T20:45:41.869Z,4.20
2018-11-26T20:48:10.887Z,4.20
2018-11-26T20:50:40.991Z,4.20
2018-11-26T20:53:09.731Z,4.20
2018-11-26T20:55:38.039Z,4.20
2018-11-26T20:58:06.443Z,3.70
2018-11-26T21:00:34.672Z,4.20
2018-11-26T21:03:07.896Z,4.10
2018-11-26T21:05:36.213Z,4.10
2018-11-26T21:13:00.578Z,4.10
2018-11-26T21:15:29.013Z,4.20
2018-11-26T21:17:58.107Z,4.20
2018-11-26T21:20:31.369Z,4.20
2018-11-26T21:22:59.627Z,4.10
2018-11-26T21:25:27.899Z,4.20
2018-11-26T21:30:25.262Z,4.20
2018-11-26T21:32:53.530Z,4.20
2018-11-26T21:35:21.857Z,4.20
2018-11-26T21:37:51.332Z,4.10
2018-11-26T21:40:21.109Z,4.20
2018-11-26T21:42:49.331Z,4.20
2018-11-26T21:45:29.527Z,4.10
2018-11-26T21:47:57.897Z,4.20
2018-11-26T21:50:26.185Z,4.20
2018-11-26T21:52:54.490Z,4.20
2018-11-26T21:55:23.032Z,4.20
2018-11-26T21:57:51.350Z,4.20
2018-11-26T22:00:23.843Z,4.20
2018-11-26T22:02:56.582Z,4.20
2018-11-26T22:05:24.836Z,4.20
2018-11-26T22:07:53.122Z,4.20
2018-11-26T22:10:22.410Z,4.00
2018-11-26T22:12:51.898Z,4.20
2018-11-26T22:15:20.671Z,4.20
2018-11-26T22:17:48.985Z,4.20
2018-11-26T22:22:46.038Z,2.90
2018-11-26T22:25:14.345Z,4.30
2018-11-26T22:27:42.545Z,4.30
2018-11-26T22:30:19.653Z,4.30
2018-11-26T22:32:47.972Z,4.30
2018-11-26T22:35:16.254Z,4.30
2018-11-26T22:40:14.530Z,4.30
2018-11-26T22:42:42.928Z,4.20
2018-11-26T22:45:16.216Z,4.20
2018-11-26T22:47:46.852Z,4.20
2018-11-26T22:50:15.483Z,4.10
2018-11-26T22:52:43.879Z,4.10
2018-11-26T22:55:13.093Z,4.20
2018-11-26T22:57:41.741Z,4.20
2018-11-26T23:00:15.900Z,4.20
2018-11-26T23:02:44.188Z,4.20
2018-11-26T23:05:12.485Z,4.20
2018-11-26T23:07:40.738Z,4.20
2018-11-26T23:10:09.408Z,4.20
2018-11-26T23:12:37.632Z,4.30
2018-11-26T23:15:09.273Z,4.10
2018-11-26T23:17:37.493Z,4.10
2018-11-26T23:20:08.236Z,4.10
2018-11-26T23:22:36.514Z,3.90
2018-11-26T23:25:05.462Z,4.10
2018-11-26T23:27:33.760Z,4.10
2018-11-26T23:32:29.947Z,4.00
2018-11-26T23:37:26.197Z,4.10
2018-11-26T23:39:54.453Z,4.10
2018-11-26T23:42:22.696Z,4.00
2018-11-26T23:44:50.969Z,4.10
2018-11-26T23:47:19.237Z,4.10
2018-11-26T23:49:47.461Z,4.10
2018-11-26T23:52:15.775Z,4.10
2018-11-26T23:54:44.053Z,4.10
2018-11-26T23:57:12.305Z,4.10
2018-11-26T23:59:40.610Z,4.10
